sensor_id;sensor_type;location;lat;lon;timestamp;temperature;humidity
11573;DHT22;5842;52.426;4.886;2022-10-16T00:00:04;13.20;99.90
11573;DHT22;5842;52.426;4.886;2022-10-16T00:02:32;13.30;99.90
11573;DHT22;5842;52.426;4.886;2022-10-16T00:04:59;13.30;99.90
11573;DHT22;5842;52.426;4.886;2022-10-16T00:07:27;13.30;99.90
11573;DHT22;5842;52.426;4.886;2022-10-16T00:09:54;13.30;99.90
11573;DHT22;5842;52.426;4.886;2022-10-16T00:12:21;13.30;99.90
11573;DHT22;5842;52.426;4.886;2022-10-16T00:14:49;13.30;99.90
11573;DHT22;5842;52.426;4.886;2022-10-16T00:17:17;13.30;99.90
11573;DHT22;5842;52.426;4.886;2022-10-16T00:19:44;13.20;99.90
11573;DHT22;5842;52.426;4.886;2022-10-16T00:22:11;13.20;99.90
11573;DHT22;5842;52.426;4.886;2022-10-16T00:24:38;13.10;99.90
11573;DHT22;5842;52.426;4.886;2022-10-16T00:27:06;13.10;99.90
11573;DHT22;5842;52.426;4.886;2022-10-16T00:29:33;13.10;99.90
11573;DHT22;5842;52.426;4.886;2022-10-16T00:32:01;13.00;99.90
11573;DHT22;5842;52.426;4.886;2022-10-16T00:34:28;13.00;99.90
11573;DHT22;5842;52.426;4.886;2022-10-16T00:36:55;13.00;99.90
11573;DHT22;5842;52.426;4.886;2022-10-16T00:39:23;13.10;99.90
11573;DHT22;5842;52.426;4.886;2022-10-16T00:41:50;13.10;99.90
11573;DHT22;5842;52.426;4.886;2022-10-16T00:44:43;13.10;99.90
11573;DHT22;5842;52.426;4.886;2022-10-16T00:47:17;13.10;99.90
11573;DHT22;5842;52.426;4.886;2022-10-16T00:49:47;13.10;99.90
11573;DHT22;5842;52.426;4.886;2022-10-16T00:52:14;13.10;99.90
11573;DHT22;5842;52.426;4.886;2022-10-16T00:54:42;13.10;99.90
11573;DHT22;5842;52.426;4.886;2022-10-16T00:57:09;13.00;99.90
11573;DHT22;5842;52.426;4.886;2022-10-16T00:59:38;13.00;99.90
11573;DHT22;5842;52.426;4.886;2022-10-16T01:02:09;13.00;99.90
11573;DHT22;5842;52.426;4.886;2022-10-16T01:04:40;13.00;99.90
11573;DHT22;5842;52.426;4.886;2022-10-16T01:07:13;13.00;99.90
11573;DHT22;5842;52.426;4.886;2022-10-16T01:09:52;13.00;99.90
11573;DHT22;5842;52.426;4.886;2022-10-16T01:12:29;13.10;99.90
11573;DHT22;5842;52.426;4.886;2022-10-16T01:15:03;13.10;99.90
11573;DHT22;5842;52.426;4.886;2022-10-16T01:17:37;13.10;99.90
11573;DHT22;5842;52.426;4.886;2022-10-16T01:20:11;13.10;99.90
11573;DHT22;5842;52.426;4.886;2022-10-16T01:22:50;13.00;99.90
11573;DHT22;5842;52.426;4.886;2022-10-16T01:25:31;12.90;99.90
11573;DHT22;5842;52.426;4.886;2022-10-16T01:28:06;12.90;99.90
11573;DHT22;5842;52.426;4.886;2022-10-16T01:30:36;12.90;99.90
11573;DHT22;5842;52.426;4.886;2022-10-16T01:33:10;12.90;99.90
11573;DHT22;5842;52.426;4.886;2022-10-16T01:35:44;12.90;99.90
11573;DHT22;5842;52.426;4.886;2022-10-16T01:38:17;12.80;99.90
11573;DHT22;5842;52.426;4.886;2022-10-16T01:40:50;12.70;99.90
11573;DHT22;5842;52.426;4.886;2022-10-16T01:43:22;12.60;99.90
11573;DHT22;5842;52.426;4.886;2022-10-16T01:45:52;12.50;99.90
11573;DHT22;5842;52.426;4.886;2022-10-16T01:48:20;12.50;99.90
11573;DHT22;5842;52.426;4.886;2022-10-16T01:50:54;12.50;99.90
11573;DHT22;5842;52.426;4.886;2022-10-16T01:53:23;12.40;99.90
11573;DHT22;5842;52.426;4.886;2022-10-16T01:55:54;12.40;99.90
11573;DHT22;5842;52.426;4.886;2022-10-16T01:58:24;12.40;99.90
11573;DHT22;5842;52.426;4.886;2022-10-16T02:00:53;12.40;99.90
11573;DHT22;5842;52.426;4.886;2022-10-16T02:03:21;12.40;99.90
11573;DHT22;5842;52.426;4.886;2022-10-16T02:05:51;12.30;99.90
11573;DHT22;5842;52.426;4.886;2022-10-16T02:08:21;12.30;99.90
11573;DHT22;5842;52.426;4.886;2022-10-16T02:10:49;12.30;99.90
11573;DHT22;5842;52.426;4.886;2022-10-16T02:13:18;12.40;99.90
11573;DHT22;5842;52.426;4.886;2022-10-16T02:15:48;12.50;99.90
11573;DHT22;5842;52.426;4.886;2022-10-16T02:18:16;12.50;99.90
11573;DHT22;5842;52.426;4.886;2022-10-16T02:20:48;12.50;99.90
11573;DHT22;5842;52.426;4.886;2022-10-16T02:23:22;12.60;99.90
11573;DHT22;5842;52.426;4.886;2022-10-16T02:25:52;12.70;99.90
11573;DHT22;5842;52.426;4.886;2022-10-16T02:28:24;12.60;99.90
11573;DHT22;5842;52.426;4.886;2022-10-16T02:30:57;12.60;99.90
11573;DHT22;5842;52.426;4.886;2022-10-16T02:33:26;12.60;99.90
11573;DHT22;5842;52.426;4.886;2022-10-16T02:35:54;12.60;99.90
11573;DHT22;5842;52.426;4.886;2022-10-16T02:38:23;12.50;99.90
11573;DHT22;5842;52.426;4.886;2022-10-16T02:40:51;12.40;99.90
11573;DHT22;5842;52.426;4.886;2022-10-16T02:43:19;12.40;99.90
11573;DHT22;5842;52.426;4.886;2022-10-16T02:45:46;12.40;99.90
11573;DHT22;5842;52.426;4.886;2022-10-16T02:48:15;12.30;99.90
11573;DHT22;5842;52.426;4.886;2022-10-16T02:50:42;12.30;99.90
11573;DHT22;5842;52.426;4.886;2022-10-16T02:53:09;12.30;99.90
11573;DHT22;5842;52.426;4.886;2022-10-16T02:55:36;12.20;99.90
11573;DHT22;5842;52.426;4.886;2022-10-16T02:58:03;12.30;99.90
11573;DHT22;5842;52.426;4.886;2022-10-16T03:00:30;12.20;99.90
11573;DHT22;5842;52.426;4.886;2022-10-16T03:02:57;12.20;99.90
11573;DHT22;5842;52.426;4.886;2022-10-16T03:05:26;12.20;99.90
11573;DHT22;5842;52.426;4.886;2022-10-16T03:07:53;12.20;99.90
11573;DHT22;5842;52.426;4.886;2022-10-16T03:10:21;12.20;99.90
11573;DHT22;5842;52.426;4.886;2022-10-16T03:12:48;12.20;99.90
11573;DHT22;5842;52.426;4.886;2022-10-16T03:15:15;12.10;99.90
11573;DHT22;5842;52.426;4.886;2022-10-16T03:17:42;12.20;99.90
11573;DHT22;5842;52.426;4.886;2022-10-16T03:20:10;12.20;99.90
11573;DHT22;5842;52.426;4.886;2022-10-16T03:22:38;12.20;99.90
11573;DHT22;5842;52.426;4.886;2022-10-16T03:25:06;12.20;99.90
11573;DHT22;5842;52.426;4.886;2022-10-16T03:27:34;12.20;99.90
11573;DHT22;5842;52.426;4.886;2022-10-16T03:30:01;12.20;99.90
11573;DHT22;5842;52.426;4.886;2022-10-16T03:32:28;12.20;99.90
11573;DHT22;5842;52.426;4.886;2022-10-16T03:34:55;12.30;99.90
11573;DHT22;5842;52.426;4.886;2022-10-16T03:37:22;12.30;99.90
11573;DHT22;5842;52.426;4.886;2022-10-16T03:39:51;12.30;99.90
11573;DHT22;5842;52.426;4.886;2022-10-16T03:42:18;12.10;99.90
11573;DHT22;5842;52.426;4.886;2022-10-16T03:44:45;12.10;99.90
11573;DHT22;5842;52.426;4.886;2022-10-16T03:47:12;12.10;99.90
11573;DHT22;5842;52.426;4.886;2022-10-16T03:49:39;12.00;99.90
11573;DHT22;5842;52.426;4.886;2022-10-16T03:52:07;12.00;99.90
11573;DHT22;5842;52.426;4.886;2022-10-16T03:54:34;12.00;99.90
11573;DHT22;5842;52.426;4.886;2022-10-16T03:57:02;12.00;99.90
11573;DHT22;5842;52.426;4.886;2022-10-16T03:59:30;12.00;99.90
11573;DHT22;5842;52.426;4.886;2022-10-16T04:01:57;12.00;99.90
11573;DHT22;5842;52.426;4.886;2022-10-16T04:04:24;12.00;99.90
11573;DHT22;5842;52.426;4.886;2022-10-16T04:06:51;12.10;99.90
11573;DHT22;5842;52.426;4.886;2022-10-16T04:09:18;12.10;99.90
11573;DHT22;5842;52.426;4.886;2022-10-16T04:11:45;12.10;99.90
11573;DHT22;5842;52.426;4.886;2022-10-16T04:14:14;12.10;99.90
11573;DHT22;5842;52.426;4.886;2022-10-16T04:16:41;12.20;99.90
11573;DHT22;5842;52.426;4.886;2022-10-16T04:19:09;12.20;99.90
11573;DHT22;5842;52.426;4.886;2022-10-16T04:21:36;12.10;99.90
11573;DHT22;5842;52.426;4.886;2022-10-16T04:24:04;12.10;99.90
11573;DHT22;5842;52.426;4.886;2022-10-16T04:26:31;12.10;99.90
11573;DHT22;5842;52.426;4.886;2022-10-16T04:28:58;12.10;99.90
11573;DHT22;5842;52.426;4.886;2022-10-16T04:31:27;12.00;99.90
11573;DHT22;5842;52.426;4.886;2022-10-16T04:33:54;12.10;99.90
11573;DHT22;5842;52.426;4.886;2022-10-16T04:36:21;12.10;99.90
11573;DHT22;5842;52.426;4.886;2022-10-16T04:38:48;12.10;99.90
11573;DHT22;5842;52.426;4.886;2022-10-16T04:41:15;12.10;99.90
11573;DHT22;5842;52.426;4.886;2022-10-16T04:43:42;12.10;99.90
11573;DHT22;5842;52.426;4.886;2022-10-16T04:46:09;12.10;99.90
11573;DHT22;5842;52.426;4.886;2022-10-16T04:48:39;12.10;99.90
11573;DHT22;5842;52.426;4.886;2022-10-16T04:51:07;12.10;99.90
11573;DHT22;5842;52.426;4.886;2022-10-16T04:53:34;12.00;99.90
11573;DHT22;5842;52.426;4.886;2022-10-16T04:56:01;12.00;99.90
11573;DHT22;5842;52.426;4.886;2022-10-16T04:58:28;12.10;99.90
11573;DHT22;5842;52.426;4.886;2022-10-16T05:00:55;12.10;99.90
11573;DHT22;5842;52.426;4.886;2022-10-16T05:03:22;12.20;99.90
11573;DHT22;5842;52.426;4.886;2022-10-16T05:05:50;12.30;99.90
11573;DHT22;5842;52.426;4.886;2022-10-16T05:08:17;12.30;99.90
11573;DHT22;5842;52.426;4.886;2022-10-16T05:10:45;12.40;99.90
11573;DHT22;5842;52.426;4.886;2022-10-16T05:13:12;12.40;99.90
11573;DHT22;5842;52.426;4.886;2022-10-16T05:15:39;12.40;99.90
11573;DHT22;5842;52.426;4.886;2022-10-16T05:18:08;12.40;99.90
11573;DHT22;5842;52.426;4.886;2022-10-16T05:20:35;12.50;99.90
11573;DHT22;5842;52.426;4.886;2022-10-16T05:23:07;12.60;99.90
11573;DHT22;5842;52.426;4.886;2022-10-16T05:25:35;12.60;99.90
11573;DHT22;5842;52.426;4.886;2022-10-16T05:28:03;12.60;99.90
11573;DHT22;5842;52.426;4.886;2022-10-16T05:30:30;12.60;99.90
11573;DHT22;5842;52.426;4.886;2022-10-16T05:32:57;12.60;99.90
11573;DHT22;5842;52.426;4.886;2022-10-16T05:35:24;12.60;99.90
11573;DHT22;5842;52.426;4.886;2022-10-16T05:37:52;12.60;99.90
11573;DHT22;5842;52.426;4.886;2022-10-16T05:40:21;12.70;99.90
11573;DHT22;5842;52.426;4.886;2022-10-16T05:42:48;12.60;99.90
11573;DHT22;5842;52.426;4.886;2022-10-16T05:45:15;12.60;99.90
11573;DHT22;5842;52.426;4.886;2022-10-16T05:47:42;12.60;99.90
11573;DHT22;5842;52.426;4.886;2022-10-16T05:50:09;12.70;99.90
11573;DHT22;5842;52.426;4.886;2022-10-16T05:52:36;12.60;99.90
11573;DHT22;5842;52.426;4.886;2022-10-16T05:55:04;12.70;99.90
11573;DHT22;5842;52.426;4.886;2022-10-16T05:57:32;12.60;99.90
11573;DHT22;5842;52.426;4.886;2022-10-16T05:59:59;12.60;99.90
11573;DHT22;5842;52.426;4.886;2022-10-16T06:02:27;12.60;99.90
11573;DHT22;5842;52.426;4.886;2022-10-16T06:04:54;12.60;99.90
11573;DHT22;5842;52.426;4.886;2022-10-16T06:07:21;12.60;99.90
11573;DHT22;5842;52.426;4.886;2022-10-16T06:09:49;12.60;99.90
11573;DHT22;5842;52.426;4.886;2022-10-16T06:12:16;12.60;99.90
11573;DHT22;5842;52.426;4.886;2022-10-16T06:14:46;12.60;99.90
11573;DHT22;5842;52.426;4.886;2022-10-16T06:17:16;12.60;99.90
11573;DHT22;5842;52.426;4.886;2022-10-16T06:19:43;12.60;99.90
11573;DHT22;5842;52.426;4.886;2022-10-16T06:22:10;12.60;99.90
11573;DHT22;5842;52.426;4.886;2022-10-16T06:24:37;12.60;99.90
11573;DHT22;5842;52.426;4.886;2022-10-16T06:27:04;12.60;99.90
11573;DHT22;5842;52.426;4.886;2022-10-16T06:29:31;12.70;99.90
11573;DHT22;5842;52.426;4.886;2022-10-16T06:32:00;12.70;99.90
11573;DHT22;5842;52.426;4.886;2022-10-16T06:34:27;12.70;99.90
11573;DHT22;5842;52.426;4.886;2022-10-16T06:36:54;12.80;99.90
11573;DHT22;5842;52.426;4.886;2022-10-16T06:39:21;12.80;99.90
11573;DHT22;5842;52.426;4.886;2022-10-16T06:41:48;12.80;99.90
11573;DHT22;5842;52.426;4.886;2022-10-16T06:44:17;12.90;99.90
11573;DHT22;5842;52.426;4.886;2022-10-16T06:46:44;12.90;99.90
11573;DHT22;5842;52.426;4.886;2022-10-16T06:49:12;12.90;99.90
11573;DHT22;5842;52.426;4.886;2022-10-16T06:51:46;13.00;99.90
11573;DHT22;5842;52.426;4.886;2022-10-16T06:54:15;13.00;99.90
11573;DHT22;5842;52.426;4.886;2022-10-16T06:56:43;13.00;99.90
11573;DHT22;5842;52.426;4.886;2022-10-16T06:59:10;13.00;99.90
11573;DHT22;5842;52.426;4.886;2022-10-16T07:01:37;12.90;99.90
11573;DHT22;5842;52.426;4.886;2022-10-16T07:04:04;12.80;99.90
11573;DHT22;5842;52.426;4.886;2022-10-16T07:06:33;12.80;99.90
11573;DHT22;5842;52.426;4.886;2022-10-16T07:09:03;12.70;99.90
11573;DHT22;5842;52.426;4.886;2022-10-16T07:11:31;12.70;99.90
11573;DHT22;5842;52.426;4.886;2022-10-16T07:13:58;12.70;99.90
11573;DHT22;5842;52.426;4.886;2022-10-16T07:16:27;12.80;99.90
11573;DHT22;5842;52.426;4.886;2022-10-16T07:18:55;12.80;99.90
11573;DHT22;5842;52.426;4.886;2022-10-16T07:38:12;13.60;99.90
11573;DHT22;5842;52.426;4.886;2022-10-16T07:43:06;14.80;99.90
11573;DHT22;5842;52.426;4.886;2022-10-16T07:45:33;15.40;99.90
11573;DHT22;5842;52.426;4.886;2022-10-16T07:48:00;15.60;99.90
11573;DHT22;5842;52.426;4.886;2022-10-16T07:50:27;15.90;99.90
11573;DHT22;5842;52.426;4.886;2022-10-16T07:52:54;16.50;99.90
11573;DHT22;5842;52.426;4.886;2022-10-16T07:57:50;19.00;99.90
11573;DHT22;5842;52.426;4.886;2022-10-16T08:00:17;19.60;99.90
11573;DHT22;5842;52.426;4.886;2022-10-16T08:02:44;19.80;99.90
11573;DHT22;5842;52.426;4.886;2022-10-16T08:05:10;20.50;99.90
11573;DHT22;5842;52.426;4.886;2022-10-16T08:07:37;21.00;99.90
11573;DHT22;5842;52.426;4.886;2022-10-16T08:10:05;21.40;99.90
11573;DHT22;5842;52.426;4.886;2022-10-16T08:15:00;22.70;99.90
11573;DHT22;5842;52.426;4.886;2022-10-16T08:17:27;23.30;99.90
11573;DHT22;5842;52.426;4.886;2022-10-16T08:19:54;24.20;99.90
11573;DHT22;5842;52.426;4.886;2022-10-16T08:22:21;24.20;98.80
11573;DHT22;5842;52.426;4.886;2022-10-16T08:24:47;23.70;99.90
11573;DHT22;5842;52.426;4.886;2022-10-16T08:27:14;23.70;99.40
11573;DHT22;5842;52.426;4.886;2022-10-16T08:29:41;23.00;99.90
11573;DHT22;5842;52.426;4.886;2022-10-16T08:32:10;23.20;99.90
11573;DHT22;5842;52.426;4.886;2022-10-16T08:34:36;23.50;99.90
11573;DHT22;5842;52.426;4.886;2022-10-16T08:37:03;23.70;99.50
11573;DHT22;5842;52.426;4.886;2022-10-16T08:39:30;23.90;98.80
11573;DHT22;5842;52.426;4.886;2022-10-16T08:42:01;23.60;99.20
11573;DHT22;5842;52.426;4.886;2022-10-16T08:44:32;23.50;99.70
11573;DHT22;5842;52.426;4.886;2022-10-16T08:47:02;23.80;99.40
11573;DHT22;5842;52.426;4.886;2022-10-16T08:49:34;24.20;99.20
11573;DHT22;5842;52.426;4.886;2022-10-16T08:52:02;24.30;97.90
11573;DHT22;5842;52.426;4.886;2022-10-16T08:54:29;24.20;98.50
11573;DHT22;5842;52.426;4.886;2022-10-16T08:57:00;24.10;99.10
11573;DHT22;5842;52.426;4.886;2022-10-16T08:59:31;23.50;99.90
11573;DHT22;5842;52.426;4.886;2022-10-16T09:01:58;23.10;99.90
11573;DHT22;5842;52.426;4.886;2022-10-16T09:04:38;22.60;99.90
11573;DHT22;5842;52.426;4.886;2022-10-16T09:07:11;22.00;99.90
11573;DHT22;5842;52.426;4.886;2022-10-16T09:09:50;21.40;99.90
11573;DHT22;5842;52.426;4.886;2022-10-16T09:12:22;20.70;99.90
11573;DHT22;5842;52.426;4.886;2022-10-16T09:14:58;20.10;99.90
11573;DHT22;5842;52.426;4.886;2022-10-16T09:17:36;19.70;99.90
11573;DHT22;5842;52.426;4.886;2022-10-16T09:20:30;19.20;99.90
11573;DHT22;5842;52.426;4.886;2022-10-16T09:23:10;18.90;99.90
11573;DHT22;5842;52.426;4.886;2022-10-16T09:25:41;18.70;99.90
11573;DHT22;5842;52.426;4.886;2022-10-16T09:28:09;18.50;99.90
11573;DHT22;5842;52.426;4.886;2022-10-16T09:30:37;18.40;99.90
11573;DHT22;5842;52.426;4.886;2022-10-16T09:33:06;18.30;99.90
11573;DHT22;5842;52.426;4.886;2022-10-16T09:35:38;18.00;99.90
11573;DHT22;5842;52.426;4.886;2022-10-16T09:38:07;17.70;99.90
11573;DHT22;5842;52.426;4.886;2022-10-16T09:40:36;17.20;99.90
11573;DHT22;5842;52.426;4.886;2022-10-16T09:43:16;16.80;99.90
11573;DHT22;5842;52.426;4.886;2022-10-16T09:45:54;16.40;99.90
11573;DHT22;5842;52.426;4.886;2022-10-16T09:48:22;16.00;99.90
11573;DHT22;5842;52.426;4.886;2022-10-16T09:50:58;15.80;99.90
11573;DHT22;5842;52.426;4.886;2022-10-16T09:53:37;15.50;99.90
11573;DHT22;5842;52.426;4.886;2022-10-16T09:58:33;15.30;99.90
11573;DHT22;5842;52.426;4.886;2022-10-16T10:01:00;15.30;99.90
11573;DHT22;5842;52.426;4.886;2022-10-16T10:03:35;15.30;99.90
11573;DHT22;5842;52.426;4.886;2022-10-16T10:06:14;15.30;99.90
11573;DHT22;5842;52.426;4.886;2022-10-16T10:08:56;15.60;99.90
11573;DHT22;5842;52.426;4.886;2022-10-16T10:11:53;15.90;99.90
11573;DHT22;5842;52.426;4.886;2022-10-16T10:14:30;16.20;99.90
11573;DHT22;5842;52.426;4.886;2022-10-16T10:17:13;16.50;99.90
11573;DHT22;5842;52.426;4.886;2022-10-16T10:19:44;16.70;99.90
11573;DHT22;5842;52.426;4.886;2022-10-16T10:22:30;16.90;99.90
11573;DHT22;5842;52.426;4.886;2022-10-16T10:25:19;17.00;99.90
11573;DHT22;5842;52.426;4.886;2022-10-16T10:27:59;17.10;99.90
11573;DHT22;5842;52.426;4.886;2022-10-16T10:30:37;17.30;99.90
11573;DHT22;5842;52.426;4.886;2022-10-16T10:33:25;17.40;99.90
11573;DHT22;5842;52.426;4.886;2022-10-16T10:36:05;17.70;99.90
11573;DHT22;5842;52.426;4.886;2022-10-16T10:38:42;17.80;99.90
11573;DHT22;5842;52.426;4.886;2022-10-16T10:41:27;17.90;99.90
11573;DHT22;5842;52.426;4.886;2022-10-16T10:44:07;18.00;99.90
11573;DHT22;5842;52.426;4.886;2022-10-16T10:46:45;18.30;99.90
11573;DHT22;5842;52.426;4.886;2022-10-16T10:49:42;18.60;99.90
11573;DHT22;5842;52.426;4.886;2022-10-16T10:52:31;18.80;99.90
11573;DHT22;5842;52.426;4.886;2022-10-16T10:55:11;19.00;99.90
11573;DHT22;5842;52.426;4.886;2022-10-16T10:57:49;19.20;99.90
11573;DHT22;5842;52.426;4.886;2022-10-16T11:00:25;19.50;99.90
11573;DHT22;5842;52.426;4.886;2022-10-16T11:03:03;19.80;99.90
11573;DHT22;5842;52.426;4.886;2022-10-16T11:05:41;20.00;99.90
11573;DHT22;5842;52.426;4.886;2022-10-16T11:08:15;20.00;99.90
11573;DHT22;5842;52.426;4.886;2022-10-16T11:11:00;20.00;99.90
11573;DHT22;5842;52.426;4.886;2022-10-16T11:13:32;19.80;99.90
11573;DHT22;5842;52.426;4.886;2022-10-16T11:16:03;19.60;99.90
11573;DHT22;5842;52.426;4.886;2022-10-16T11:18:40;19.60;99.90
11573;DHT22;5842;52.426;4.886;2022-10-16T11:21:11;19.70;99.90
11573;DHT22;5842;52.426;4.886;2022-10-16T11:23:44;19.70;99.90
11573;DHT22;5842;52.426;4.886;2022-10-16T11:26:18;19.70;99.90
11573;DHT22;5842;52.426;4.886;2022-10-16T11:28:50;19.70;99.90
11573;DHT22;5842;52.426;4.886;2022-10-16T11:31:26;19.70;99.90
11573;DHT22;5842;52.426;4.886;2022-10-16T11:34:02;19.70;99.90
11573;DHT22;5842;52.426;4.886;2022-10-16T11:36:35;19.80;99.90
11573;DHT22;5842;52.426;4.886;2022-10-16T11:39:10;19.80;99.90
11573;DHT22;5842;52.426;4.886;2022-10-16T11:41:44;19.80;99.90
11573;DHT22;5842;52.426;4.886;2022-10-16T11:44:31;19.90;99.90
11573;DHT22;5842;52.426;4.886;2022-10-16T11:47:09;19.80;99.90
11573;DHT22;5842;52.426;4.886;2022-10-16T11:49:40;19.80;99.90
11573;DHT22;5842;52.426;4.886;2022-10-16T11:52:12;19.70;99.90
11573;DHT22;5842;52.426;4.886;2022-10-16T11:54:47;19.80;99.90
11573;DHT22;5842;52.426;4.886;2022-10-16T11:57:23;19.70;99.90
11573;DHT22;5842;52.426;4.886;2022-10-16T11:59:57;19.70;99.90
11573;DHT22;5842;52.426;4.886;2022-10-16T12:02:36;19.70;99.90
11573;DHT22;5842;52.426;4.886;2022-10-16T12:05:15;19.70;99.90
11573;DHT22;5842;52.426;4.886;2022-10-16T12:07:50;19.80;99.90
11573;DHT22;5842;52.426;4.886;2022-10-16T12:10:23;19.80;99.90
11573;DHT22;5842;52.426;4.886;2022-10-16T12:12:52;19.70;99.90
11573;DHT22;5842;52.426;4.886;2022-10-16T12:15:22;19.60;99.90
11573;DHT22;5842;52.426;4.886;2022-10-16T12:17:50;19.50;99.90
11573;DHT22;5842;52.426;4.886;2022-10-16T12:20:24;19.50;99.90
11573;DHT22;5842;52.426;4.886;2022-10-16T12:23:04;19.40;99.90
11573;DHT22;5842;52.426;4.886;2022-10-16T12:25:39;19.40;99.90
11573;DHT22;5842;52.426;4.886;2022-10-16T12:28:21;19.30;99.90
11573;DHT22;5842;52.426;4.886;2022-10-16T12:30:53;19.00;99.90
11573;DHT22;5842;52.426;4.886;2022-10-16T12:33:24;18.90;99.90
11573;DHT22;5842;52.426;4.886;2022-10-16T12:35:52;18.70;99.90
11573;DHT22;5842;52.426;4.886;2022-10-16T12:38:21;18.40;99.90
11573;DHT22;5842;52.426;4.886;2022-10-16T12:40:58;18.20;99.90
11573;DHT22;5842;52.426;4.886;2022-10-16T12:43:41;18.30;99.90
11573;DHT22;5842;52.426;4.886;2022-10-16T12:46:26;18.30;99.90
11573;DHT22;5842;52.426;4.886;2022-10-16T12:49:20;18.40;99.90
11573;DHT22;5842;52.426;4.886;2022-10-16T12:51:48;18.40;99.90
11573;DHT22;5842;52.426;4.886;2022-10-16T12:54:18;18.40;99.90
11573;DHT22;5842;52.426;4.886;2022-10-16T12:56:53;18.40;99.90
11573;DHT22;5842;52.426;4.886;2022-10-16T12:59:33;18.40;99.90
11573;DHT22;5842;52.426;4.886;2022-10-16T13:02:35;18.30;99.90
11573;DHT22;5842;52.426;4.886;2022-10-16T13:05:20;18.20;99.90
11573;DHT22;5842;52.426;4.886;2022-10-16T13:07:56;18.00;99.90
11573;DHT22;5842;52.426;4.886;2022-10-16T13:10:33;17.90;99.90
11573;DHT22;5842;52.426;4.886;2022-10-16T13:13:18;17.80;99.90
11573;DHT22;5842;52.426;4.886;2022-10-16T13:16:02;17.80;99.90
11573;DHT22;5842;52.426;4.886;2022-10-16T13:18:43;17.50;99.90
11573;DHT22;5842;52.426;4.886;2022-10-16T13:21:28;17.30;99.90
11573;DHT22;5842;52.426;4.886;2022-10-16T13:24:06;17.10;99.90
11573;DHT22;5842;52.426;4.886;2022-10-16T13:26:41;17.10;99.90
11573;DHT22;5842;52.426;4.886;2022-10-16T13:29:12;17.00;99.90
11573;DHT22;5842;52.426;4.886;2022-10-16T13:31:43;16.80;99.90
11573;DHT22;5842;52.426;4.886;2022-10-16T13:34:14;16.80;99.90
11573;DHT22;5842;52.426;4.886;2022-10-16T13:36:47;16.70;99.90
11573;DHT22;5842;52.426;4.886;2022-10-16T13:39:21;16.70;99.90
11573;DHT22;5842;52.426;4.886;2022-10-16T13:42:01;16.60;99.90
11573;DHT22;5842;52.426;4.886;2022-10-16T13:44:34;16.60;99.90
11573;DHT22;5842;52.426;4.886;2022-10-16T13:47:03;16.50;99.90
11573;DHT22;5842;52.426;4.886;2022-10-16T13:49:30;16.50;99.90
11573;DHT22;5842;52.426;4.886;2022-10-16T13:51:59;16.50;99.90
11573;DHT22;5842;52.426;4.886;2022-10-16T13:54:27;16.50;99.90
11573;DHT22;5842;52.426;4.886;2022-10-16T13:56:55;16.50;99.90
11573;DHT22;5842;52.426;4.886;2022-10-16T13:59:24;16.60;99.90
11573;DHT22;5842;52.426;4.886;2022-10-16T14:01:54;16.70;99.90
11573;DHT22;5842;52.426;4.886;2022-10-16T14:04:25;16.80;99.90
11573;DHT22;5842;52.426;4.886;2022-10-16T14:06:55;16.80;99.90
11573;DHT22;5842;52.426;4.886;2022-10-16T14:09:26;16.90;99.90
11573;DHT22;5842;52.426;4.886;2022-10-16T14:11:56;16.90;99.90
11573;DHT22;5842;52.426;4.886;2022-10-16T14:14:25;16.90;99.90
11573;DHT22;5842;52.426;4.886;2022-10-16T14:16:54;17.00;99.90
11573;DHT22;5842;52.426;4.886;2022-10-16T14:19:25;17.10;99.90
11573;DHT22;5842;52.426;4.886;2022-10-16T14:21:54;17.10;99.90
11573;DHT22;5842;52.426;4.886;2022-10-16T14:24:31;17.10;99.90
11573;DHT22;5842;52.426;4.886;2022-10-16T14:27:02;17.10;99.90
11573;DHT22;5842;52.426;4.886;2022-10-16T14:29:47;17.00;99.90
11573;DHT22;5842;52.426;4.886;2022-10-16T14:32:23;16.90;99.90
11573;DHT22;5842;52.426;4.886;2022-10-16T14:34:54;16.90;99.90
11573;DHT22;5842;52.426;4.886;2022-10-16T14:37:24;16.80;99.90
11573;DHT22;5842;52.426;4.886;2022-10-16T14:39:52;16.70;99.90
11573;DHT22;5842;52.426;4.886;2022-10-16T14:42:22;16.60;99.90
11573;DHT22;5842;52.426;4.886;2022-10-16T14:44:51;16.60;99.90
11573;DHT22;5842;52.426;4.886;2022-10-16T14:47:21;16.50;99.90
11573;DHT22;5842;52.426;4.886;2022-10-16T14:49:50;16.50;99.90
11573;DHT22;5842;52.426;4.886;2022-10-16T14:52:20;16.40;99.90
11573;DHT22;5842;52.426;4.886;2022-10-16T14:54:48;16.40;99.90
11573;DHT22;5842;52.426;4.886;2022-10-16T14:57:17;16.30;99.90
11573;DHT22;5842;52.426;4.886;2022-10-16T14:59:45;16.30;99.90
11573;DHT22;5842;52.426;4.886;2022-10-16T15:02:18;16.30;99.90
11573;DHT22;5842;52.426;4.886;2022-10-16T15:04:48;16.20;99.90
11573;DHT22;5842;52.426;4.886;2022-10-16T15:07:15;16.20;99.90
11573;DHT22;5842;52.426;4.886;2022-10-16T15:09:44;16.10;99.90
11573;DHT22;5842;52.426;4.886;2022-10-16T15:12:11;16.10;99.90
11573;DHT22;5842;52.426;4.886;2022-10-16T15:14:38;16.00;99.90
11573;DHT22;5842;52.426;4.886;2022-10-16T15:17:05;16.00;99.90
11573;DHT22;5842;52.426;4.886;2022-10-16T15:19:32;16.00;99.90
11573;DHT22;5842;52.426;4.886;2022-10-16T15:21:59;15.90;99.90
11573;DHT22;5842;52.426;4.886;2022-10-16T15:24:26;15.90;99.90
11573;DHT22;5842;52.426;4.886;2022-10-16T15:26:55;15.80;99.90
11573;DHT22;5842;52.426;4.886;2022-10-16T15:29:22;15.80;99.90
11573;DHT22;5842;52.426;4.886;2022-10-16T15:31:49;15.80;99.90
11573;DHT22;5842;52.426;4.886;2022-10-16T15:34:16;15.70;99.90
11573;DHT22;5842;52.426;4.886;2022-10-16T15:36:46;15.60;99.90
11573;DHT22;5842;52.426;4.886;2022-10-16T15:39:15;15.60;99.90
11573;DHT22;5842;52.426;4.886;2022-10-16T15:41:44;15.50;99.90
11573;DHT22;5842;52.426;4.886;2022-10-16T15:44:17;15.40;99.90
11573;DHT22;5842;52.426;4.886;2022-10-16T15:49:12;15.30;99.90
11573;DHT22;5842;52.426;4.886;2022-10-16T15:51:40;15.20;99.90
11573;DHT22;5842;52.426;4.886;2022-10-16T15:54:08;15.00;99.90
11573;DHT22;5842;52.426;4.886;2022-10-16T15:56:35;14.90;99.90
11573;DHT22;5842;52.426;4.886;2022-10-16T15:59:05;14.90;99.90
11573;DHT22;5842;52.426;4.886;2022-10-16T16:01:34;14.80;99.90
11573;DHT22;5842;52.426;4.886;2022-10-16T16:04:04;14.70;99.90
11573;DHT22;5842;52.426;4.886;2022-10-16T16:06:31;14.60;99.90
11573;DHT22;5842;52.426;4.886;2022-10-16T16:08:58;14.50;99.90
11573;DHT22;5842;52.426;4.886;2022-10-16T16:11:26;14.50;99.90
11573;DHT22;5842;52.426;4.886;2022-10-16T16:13:53;14.30;99.90
11573;DHT22;5842;52.426;4.886;2022-10-16T16:16:21;14.20;99.90
11573;DHT22;5842;52.426;4.886;2022-10-16T16:18:54;14.10;99.90
11573;DHT22;5842;52.426;4.886;2022-10-16T16:21:21;14.10;99.90
11573;DHT22;5842;52.426;4.886;2022-10-16T16:23:48;14.00;99.90
11573;DHT22;5842;52.426;4.886;2022-10-16T16:26:24;13.90;99.90
11573;DHT22;5842;52.426;4.886;2022-10-16T16:31:25;13.70;99.90
11573;DHT22;5842;52.426;4.886;2022-10-16T16:33:55;13.60;99.90
11573;DHT22;5842;52.426;4.886;2022-10-16T16:36:24;13.50;99.90
11573;DHT22;5842;52.426;4.886;2022-10-16T16:38:52;13.40;99.90